Terminal Aerodrome Forecast
Issued by NWS Louisville, KY

Home | Current Version | Previous Version | Text Only | Print | Product List | Glossary On
Versions: 1 2 3 4 5 6 7 8 9 10 11 12 13 14
000
FTUS43 KLMK 242320
TAFSDF
TAF
KSDF 242320Z 2500/2606 29010KT 3SM RA BR SCT008 OVC015
     FM250200 26015KT P6SM -SHRA BKN009
     FM251300 28015KT P6SM -SHRA OVC007
     FM251800 30015G21KT P6SM VCSH BKN015
     FM252100 30015G25KT P6SM BKN025=

USA.gov is the U.S. government's official web portal to all federal, state and local government web resources and services.